createdAt,value
2022-08-22T00:02:09.077Z,63.0
2022-08-22T00:12:08.405Z,62.8
2022-08-22T00:22:08.420Z,64.8
2022-08-22T00:27:08.404Z,62.9
2022-08-22T00:32:08.422Z,63.5
2022-08-22T00:37:08.413Z,63.8
2022-08-22T00:47:08.428Z,64.7
2022-08-22T00:52:08.427Z,63.8
2022-08-22T00:57:08.424Z,64.8
2022-08-22T01:02:08.428Z,63.3
2022-08-22T01:12:08.641Z,66.3
2022-08-22T01:17:08.435Z,66.2
2022-08-22T01:27:08.431Z,66.2
2022-08-22T01:32:08.459Z,66.8
2022-08-22T01:37:08.441Z,65.7
2022-08-22T01:42:08.450Z,65.4
2022-08-22T01:47:08.448Z,68.2
2022-08-22T01:57:08.541Z,69.0
2022-08-22T02:02:08.453Z,69.4
2022-08-22T02:07:08.472Z,66.8
2022-08-22T02:12:21.481Z,65.9
2022-08-22T02:27:08.464Z,68.7
2022-08-22T02:32:08.467Z,69.4
2022-08-22T02:37:08.476Z,67.8
2022-08-22T02:42:08.468Z,68.7
2022-08-22T02:47:08.470Z,66.7
2022-08-22T02:57:14.318Z,66.4
2022-08-22T03:02:08.469Z,66.5
2022-08-22T03:07:08.478Z,67.6
2022-08-22T03:12:08.484Z,66.9
2022-08-22T03:17:08.493Z,68.4
2022-08-22T03:27:08.501Z,68.4
2022-08-22T03:32:08.488Z,68.1
2022-08-22T03:37:08.497Z,67.4
2022-08-22T03:42:08.523Z,65.8
2022-08-22T03:47:08.497Z,65.8
2022-08-22T03:52:08.514Z,67.3
2022-08-22T04:02:41.867Z,68.3
2022-08-22T04:07:28.102Z,69.7
2022-08-22T04:12:08.504Z,71.4
2022-08-22T04:17:08.521Z,71.4
2022-08-22T04:22:08.507Z,71.7
2022-08-22T04:27:08.520Z,72.7
2022-08-22T04:42:31.251Z,72.3
2022-08-22T04:47:08.520Z,73.3
2022-08-22T04:57:08.535Z,69.3
2022-08-22T05:02:08.799Z,68.6
2022-08-22T05:12:08.536Z,69.1
2022-08-22T05:17:08.538Z,69.0
2022-08-22T05:22:08.536Z,70.7
2022-08-22T05:32:08.556Z,72.3
2022-08-22T05:37:08.536Z,74.7
2022-08-22T05:42:08.535Z,71.6
2022-08-22T05:47:08.545Z,70.8
2022-08-22T05:52:08.770Z,69.0
2022-08-22T05:57:08.565Z,69.0
2022-08-22T06:02:08.579Z,67.1
2022-08-22T06:17:08.546Z,68.8
2022-08-22T06:22:08.561Z,70.7
2022-08-22T06:27:08.562Z,72.6
2022-08-22T06:37:08.587Z,71.5
2022-08-22T06:42:10.378Z,69.5
2022-08-22T06:47:08.574Z,69.5
2022-08-22T06:52:08.578Z,69.5
2022-08-22T06:57:08.573Z,68.8
2022-08-22T07:02:08.677Z,69.9
2022-08-22T07:07:08.584Z,68.2
2022-08-22T07:12:08.577Z,68.6
2022-08-22T07:17:08.588Z,70.1
2022-08-22T07:22:08.581Z,68.3
2022-08-22T07:27:08.586Z,67.2
2022-08-22T07:32:08.590Z,64.8
2022-08-22T07:37:08.591Z,64.3
2022-08-22T07:42:08.592Z,64.6
2022-08-22T07:52:08.594Z,61.9
2022-08-22T08:02:08.612Z,63.8
2022-08-22T08:07:08.832Z,60.3
2022-08-22T08:12:08.610Z,60.1
2022-08-22T08:17:08.605Z,59.7
2022-08-22T08:22:08.609Z,59.1
2022-08-22T08:32:08.687Z,60.5
2022-08-22T08:42:08.611Z,62.2
2022-08-22T08:47:08.616Z,60.8
2022-08-22T08:52:08.623Z,59.9
2022-08-22T08:57:08.630Z,59.2
2022-08-22T09:02:08.629Z,58.2
2022-08-22T09:07:08.618Z,56.3
2022-08-22T09:17:08.630Z,58.7
2022-08-22T09:22:14.352Z,58.2
2022-08-22T09:27:08.971Z,56.9
2022-08-22T09:32:13.160Z,56.6
2022-08-22T09:37:08.637Z,55.8
2022-08-22T09:42:08.654Z,54.9
2022-08-22T09:47:08.639Z,53.4
2022-08-22T09:52:15.174Z,53.2
2022-08-22T09:57:08.661Z,52.9
2022-08-22T10:02:15.545Z,52.8
2022-08-22T10:07:11.875Z,52.8
2022-08-22T10:12:12.387Z,51.3
2022-08-22T10:17:08.658Z,49.6
2022-08-22T10:22:08.661Z,50.1
2022-08-22T10:27:08.653Z,48.7
2022-08-22T10:32:10.782Z,48.0
2022-08-22T10:37:08.655Z,47.0
2022-08-22T10:42:08.668Z,44.5
2022-08-22T10:47:08.666Z,47.3
2022-08-22T10:52:15.816Z,47.0
2022-08-22T10:57:09.460Z,47.0
2022-08-22T11:02:08.704Z,45.6
2022-08-22T11:07:09.323Z,45.7
2022-08-22T11:12:08.673Z,42.5
2022-08-22T11:17:28.921Z,42.5
2022-08-22T11:22:10.035Z,43.8
2022-08-22T11:27:08.681Z,41.2
2022-08-22T11:32:08.681Z,42.3
2022-08-22T11:37:10.935Z,42.1
2022-08-22T11:42:08.694Z,40.3
2022-08-22T11:47:08.692Z,40.3
2022-08-22T11:52:08.703Z,38.4
2022-08-22T11:57:08.691Z,36.7
2022-08-22T12:02:08.873Z,40.4
2022-08-22T12:07:08.698Z,39.1
2022-08-22T12:17:08.790Z,40.1
2022-08-22T12:22:08.711Z,39.1
2022-08-22T12:27:08.727Z,39.2
2022-08-22T12:32:10.232Z,37.8
2022-08-22T12:37:08.770Z,41.0
2022-08-22T12:42:08.718Z,41.0
2022-08-22T12:47:09.143Z,39.5
2022-08-22T12:52:08.720Z,38.7
2022-08-22T12:57:10.470Z,40.3
2022-08-22T13:02:08.726Z,40.6
2022-08-22T13:07:08.720Z,39.2
2022-08-22T13:12:08.728Z,41.7
2022-08-22T13:27:08.751Z,38.7
2022-08-22T13:32:08.735Z,38.6
2022-08-22T13:42:14.257Z,38.6
2022-08-22T13:47:14.351Z,40.6
2022-08-22T13:52:14.548Z,37.2
2022-08-22T13:57:08.764Z,37.2
2022-08-22T14:02:08.756Z,38.2
2022-08-22T14:07:08.761Z,37.3
2022-08-22T14:12:12.190Z,37.1
2022-08-22T14:22:08.759Z,39.2
2022-08-22T14:27:08.769Z,36.9
2022-08-22T14:32:09.420Z,36.3
2022-08-22T14:52:08.961Z,39.6
2022-08-22T14:57:10.297Z,36.6
2022-08-22T15:02:08.844Z,36.2
2022-08-22T15:12:08.790Z,34.7
2022-08-22T15:17:08.789Z,37.6
2022-08-22T15:22:08.783Z,36.3
2022-08-22T15:27:08.800Z,38.4
2022-08-22T15:32:08.802Z,35.9
2022-08-22T15:37:14.273Z,33.6
2022-08-22T15:42:09.042Z,30.7
2022-08-22T15:47:10.882Z,27.8
2022-08-22T15:57:08.812Z,29.8
2022-08-22T16:02:08.843Z,31.6
2022-08-22T16:07:09.429Z,32.4
2022-08-22T16:12:08.810Z,37.1
2022-08-22T16:17:08.801Z,38.4
2022-08-22T16:22:08.812Z,38.1
2022-08-22T16:27:08.813Z,38.1
2022-08-22T16:32:08.824Z,34.9
2022-08-22T16:37:08.846Z,36.8
2022-08-22T16:42:08.831Z,34.6
2022-08-22T16:47:08.828Z,35.1
2022-08-22T16:52:08.830Z,33.8
2022-08-22T16:57:08.824Z,36.2
2022-08-22T17:02:08.840Z,38.2
2022-08-22T17:12:08.849Z,39.9
2022-08-22T17:22:08.836Z,36.0
2022-08-22T17:27:08.844Z,36.5
2022-08-22T17:32:08.863Z,40.0
2022-08-22T17:37:08.851Z,38.2
2022-08-22T17:47:08.857Z,39.8
2022-08-22T17:52:08.853Z,41.5
2022-08-22T17:57:08.866Z,42.4
2022-08-22T18:02:08.865Z,39.4
2022-08-22T18:07:08.853Z,40.9
2022-08-22T18:12:08.896Z,40.9
2022-08-22T18:17:08.876Z,40.7
2022-08-22T18:22:08.882Z,42.6
2022-08-22T18:32:08.892Z,44.2
2022-08-22T18:42:08.882Z,46.2
2022-08-22T18:47:08.879Z,45.0
2022-08-22T18:52:08.880Z,44.3
2022-08-22T18:57:08.891Z,45.0
2022-08-22T19:02:08.892Z,46.0
2022-08-22T19:07:08.904Z,46.5
2022-08-22T19:12:08.906Z,47.3
2022-08-22T19:22:08.904Z,48.9
2022-08-22T19:37:08.914Z,49.2
2022-08-22T19:42:08.901Z,49.1
2022-08-22T19:47:08.913Z,49.9
2022-08-22T19:57:10.217Z,51.9
2022-08-22T20:02:08.911Z,52.2
2022-08-22T20:12:13.247Z,53.4
2022-08-22T20:17:08.938Z,53.8
2022-08-22T20:22:08.942Z,54.7
2022-08-22T20:27:14.491Z,54.7
2022-08-22T20:37:31.978Z,55.8
2022-08-22T20:42:08.927Z,55.6
2022-08-22T20:52:08.940Z,56.2
2022-08-22T20:57:08.939Z,56.6
2022-08-22T21:02:08.942Z,56.4
2022-08-22T21:07:08.942Z,56.0
2022-08-22T21:12:08.942Z,55.4
2022-08-22T21:17:08.956Z,55.3
2022-08-22T21:22:08.967Z,55.6
2022-08-22T21:27:08.961Z,55.2
2022-08-22T21:52:08.956Z,54.5
2022-08-22T22:07:08.974Z,54.4
2022-08-22T22:12:08.979Z,54.5
2022-08-22T22:22:08.973Z,54.7
2022-08-22T22:27:11.702Z,54.8
2022-08-22T22:32:08.991Z,54.9
2022-08-22T22:37:08.986Z,55.2
2022-08-22T22:47:08.992Z,55.4
2022-08-22T22:52:08.989Z,55.6
2022-08-22T22:57:12.826Z,56.3
2022-08-22T23:12:08.993Z,56.2
2022-08-22T23:17:08.996Z,56.9
2022-08-22T23:22:09.011Z,56.5
2022-08-22T23:32:09.009Z,57.5
2022-08-22T23:42:09.042Z,57.4
2022-08-22T23:52:09.025Z,57.9
2022-08-22T23:57:11.811Z,58.5
